Time;durP1;ratioP1;P1;durP2;ratioP2;P2;SDS_P1;SDS_P2;PMS_P1;PMS_P2;Temp;Humidity;BMP_temperature;BMP_pressure;BME280_temperature;BME280_humidity;BME280_pressure;Samples;Min_cycle;Max_cycle;Signal;HPM_P1;HPM_P2
2022/05/01 00:01:35;;;;;;;11.35;5.60;;;8.40;99.90;;;;;;5090518;28;20353;-78
2022/05/01 00:04:02;;;;;;;10.77;4.95;;;8.50;99.90;;;;;;5089460;28;20073;-78
2022/05/01 00:06:27;;;;;;;8.15;5.25;;;8.40;99.90;;;;;;5090445;28;20020;-78
2022/05/01 00:08:53;;;;;;;9.57;5.38;;;8.30;99.90;;;;;;5089037;28;20035;-78
2022/05/01 00:11:19;;;;;;;9.52;5.60;;;8.20;99.90;;;;;;5090879;28;20028;-78
2022/05/01 00:13:45;;;;;;;8.45;5.45;;;8.20;99.90;;;;;;5089399;28;20032;-78
2022/05/01 00:16:12;;;;;;;8.05;5.32;;;8.20;99.90;;;;;;5090901;28;20012;-78
2022/05/01 00:18:38;;;;;;;7.20;4.95;;;8.20;99.90;;;;;;5089055;28;20800;-78
2022/05/01 00:21:04;;;;;;;8.63;5.47;;;8.20;99.90;;;;;;5090762;28;20052;-78
2022/05/01 00:23:30;;;;;;;11.27;5.93;;;8.20;99.90;;;;;;5127934;22;20048;-82
2022/05/01 00:25:58;;;;;;;11.43;6.60;;;8.20;99.90;;;;;;5089223;28;20043;-82
2022/05/01 00:28:24;;;;;;;7.82;5.35;;;8.20;99.90;;;;;;5090826;28;20077;-82
2022/05/01 00:30:49;;;;;;;8.18;4.93;;;8.20;99.90;;;;;;5090825;28;20020;-81
2022/05/01 00:38:43;;;;;;;9.38;5.28;;;8.30;99.90;;;;;;5072932;28;20085;-81
2022/05/01 00:41:11;;;;;;;6.72;4.45;;;8.30;99.90;;;;;;5057024;28;20420;-81
2022/05/01 00:44:00;;;;;;;10.80;6.05;;;8.30;99.90;;;;;;5056600;28;20036;-81
2022/05/01 00:46:26;;;;;;;10.38;5.07;;;8.40;99.90;;;;;;5070938;28;20420;-81
2022/05/01 00:48:52;;;;;;;7.88;5.60;;;8.40;99.90;;;;;;5077845;28;20033;-81
2022/05/01 00:51:20;;;;;;;10.40;6.50;;;8.40;99.90;;;;;;5073842;28;20074;-81
2022/05/01 00:53:47;;;;;;;9.05;5.72;;;8.50;99.90;;;;;;5074184;28;20024;-81
2022/05/01 00:56:13;;;;;;;10.05;6.30;;;8.40;99.90;;;;;;5074409;28;20515;-81
2022/05/01 00:58:40;;;;;;;8.50;5.78;;;8.40;99.90;;;;;;5056284;28;20020;-81
2022/05/01 01:01:06;;;;;;;11.52;5.93;;;8.40;99.90;;;;;;5074206;28;20027;-81
2022/05/01 01:03:31;;;;;;;10.57;6.03;;;8.30;99.90;;;;;;5074112;28;20024;-81
2022/05/01 01:05:57;;;;;;;11.38;6.22;;;8.30;99.90;;;;;;5074239;28;20058;-81
2022/05/01 01:08:22;;;;;;;7.93;5.10;;;8.30;99.90;;;;;;5073712;28;20029;-81
2022/05/01 01:10:48;;;;;;;8.25;5.32;;;8.30;99.90;;;;;;5073882;28;20074;-82
2022/05/01 01:13:14;;;;;;;8.25;4.93;;;8.20;99.90;;;;;;5055538;28;20024;-81
2022/05/01 01:15:41;;;;;;;7.20;5.10;;;8.20;99.90;;;;;;5073499;28;20081;-81
2022/05/01 01:18:06;;;;;;;10.02;5.43;;;8.20;99.90;;;;;;5073797;28;20020;-81
2022/05/01 01:20:32;;;;;;;9.02;5.70;;;8.10;99.90;;;;;;5074066;28;20488;-81
2022/05/01 01:23:00;;;;;;;9.68;5.13;;;8.10;99.90;;;;;;5101441;22;20143;-78
2022/05/01 01:25:31;;;;;;;8.48;5.25;;;8.10;99.90;;;;;;5093965;28;20703;-78
2022/05/01 01:28:02;;;;;;;8.18;5.75;;;8.00;99.90;;;;;;5093729;28;20017;-78
2022/05/01 01:33:15;;;;;;;8.75;5.57;;;8.00;99.90;;;;;;5080810;28;20027;-80
2022/05/01 01:35:41;;;;;;;8.50;5.25;;;7.90;99.90;;;;;;5073173;28;20043;-80
2022/05/01 01:38:07;;;;;;;7.70;5.47;;;7.90;99.90;;;;;;5069546;28;20078;-80
2022/05/01 01:41:03;;;;;;;9.10;4.65;;;7.80;99.90;;;;;;5070379;28;20037;-80
2022/05/01 01:43:31;;;;;;;11.30;5.72;;;7.70;99.90;;;;;;5065551;28;20033;-80
2022/05/01 01:45:57;;;;;;;10.40;4.88;;;7.60;99.90;;;;;;5069704;28;20060;-80
2022/05/01 01:48:24;;;;;;;7.53;5.32;;;7.60;99.90;;;;;;5073248;28;20020;-80
2022/05/01 01:51:01;;;;;;;13.15;5.82;;;7.60;99.90;;;;;;5072627;28;20042;-80
2022/05/01 01:53:29;;;;;;;9.73;5.68;;;7.60;99.90;;;;;;5072881;28;20027;-80
2022/05/01 01:55:57;;;;;;;8.43;5.63;;;7.60;99.90;;;;;;5073539;28;20497;-80
2022/05/01 01:58:24;;;;;;;11.20;6.10;;;7.50;99.90;;;;;;5073138;28;20111;-80
2022/05/01 02:00:49;;;;;;;5.78;4.40;;;7.40;99.90;;;;;;5073255;28;20017;-80
2022/05/01 02:03:15;;;;;;;8.38;5.00;;;7.40;99.90;;;;;;5072865;28;20028;-80
2022/05/01 02:05:42;;;;;;;9.05;5.03;;;7.40;99.90;;;;;;5072789;28;20020;-80
2022/05/01 02:08:07;;;;;;;9.73;5.75;;;7.40;99.90;;;;;;5072713;28;20019;-80
2022/05/01 02:10:35;;;;;;;8.40;4.97;;;7.40;99.90;;;;;;5072982;28;20054;-80
2022/05/01 02:13:01;;;;;;;9.10;6.32;;;7.30;99.90;;;;;;5072492;28;20036;-79
2022/05/01 02:15:33;;;;;;;9.45;5.82;;;7.30;99.90;;;;;;5072955;28;20100;-79
2022/05/01 02:17:59;;;;;;;11.23;5.88;;;7.30;99.90;;;;;;5072652;28;20037;-79
2022/05/01 02:20:27;;;;;;;9.20;5.80;;;7.40;99.90;;;;;;5072780;28;20024;-80
2022/05/01 02:22:53;;;;;;;10.00;5.88;;;7.40;99.90;;;;;;5087322;22;20052;-80
2022/05/01 02:25:23;;;;;;;11.20;6.10;;;7.50;99.90;;;;;;5091458;28;20036;-80
2022/05/01 02:27:49;;;;;;;10.45;6.45;;;7.50;99.90;;;;;;5091370;28;20695;-80
2022/05/01 02:30:16;;;;;;;9.68;5.82;;;7.40;99.90;;;;;;5091915;28;20067;-80
2022/05/01 02:32:42;;;;;;;7.80;5.63;;;7.40;99.90;;;;;;5082834;28;20028;-80
2022/05/01 02:35:10;;;;;;;14.02;5.88;;;7.40;99.90;;;;;;5070775;28;20033;-80
2022/05/01 02:37:35;;;;;;;10.95;6.35;;;7.40;99.90;;;;;;5070892;28;20017;-80
2022/05/01 02:40:02;;;;;;;8.65;5.28;;;7.40;99.90;;;;;;5070464;28;20035;-80
2022/05/01 02:42:28;;;;;;;13.88;7.07;;;7.50;99.90;;;;;;5070339;28;20056;-80
2022/05/01 02:44:55;;;;;;;8.63;6.05;;;7.60;99.90;;;;;;5071271;28;20060;-80
2022/05/01 02:47:21;;;;;;;11.75;7.00;;;7.60;99.90;;;;;;5070660;28;20020;-80
2022/05/01 02:49:47;;;;;;;8.98;5.72;;;7.60;99.90;;;;;;5070426;28;20070;-80
2022/05/01 02:52:13;;;;;;;9.55;5.95;;;7.60;99.90;;;;;;5070450;28;20028;-80
2022/05/01 02:54:39;;;;;;;12.18;6.45;;;7.60;99.90;;;;;;5070330;28;20511;-80
2022/05/01 02:57:05;;;;;;;8.65;5.80;;;7.60;99.90;;;;;;5068913;28;20552;-80
2022/05/01 02:59:30;;;;;;;9.65;6.10;;;7.50;99.90;;;;;;5064143;28;20428;-80
2022/05/01 03:01:56;;;;;;;10.18;6.20;;;7.50;99.90;;;;;;5070360;28;20085;-80
2022/05/01 03:04:22;;;;;;;12.10;6.45;;;7.50;99.90;;;;;;5070478;28;20040;-80
2022/05/01 03:06:48;;;;;;;11.18;5.78;;;7.60;99.90;;;;;;5070594;28;20063;-80
2022/05/01 03:09:14;;;;;;;9.98;6.13;;;7.60;99.90;;;;;;5070088;28;20028;-80
2022/05/01 03:11:39;;;;;;;10.40;6.45;;;7.60;99.90;;;;;;5070008;28;20613;-80
2022/05/01 03:14:09;;;;;;;9.15;5.95;;;7.60;99.90;;;;;;5070013;28;20671;-80
2022/05/01 03:16:35;;;;;;;9.35;6.28;;;7.60;99.90;;;;;;5063793;28;20614;-80
2022/05/01 03:24:26;;;;;;;12.50;6.50;;;7.60;99.90;;;;;;5072282;28;20056;-79
2022/05/01 03:26:52;;;;;;;7.60;5.22;;;7.70;99.90;;;;;;5077890;28;20427;-79
2022/05/01 03:29:18;;;;;;;11.35;6.20;;;7.70;99.90;;;;;;5075747;28;20024;-79
2022/05/01 03:31:46;;;;;;;10.93;5.72;;;7.60;99.90;;;;;;5075815;28;20039;-79
2022/05/01 03:34:14;;;;;;;9.55;6.10;;;7.70;99.90;;;;;;5069893;28;20024;-79
2022/05/01 03:36:40;;;;;;;10.55;5.85;;;7.70;99.90;;;;;;5070441;28;20016;-79
2022/05/01 03:39:06;;;;;;;12.57;5.85;;;7.70;99.90;;;;;;5069205;28;20021;-79
2022/05/01 03:41:32;;;;;;;9.70;5.57;;;7.70;99.90;;;;;;5069439;28;20103;-79
2022/05/01 03:43:58;;;;;;;8.73;5.32;;;7.70;99.90;;;;;;5070105;28;20025;-79
2022/05/01 03:46:24;;;;;;;9.07;5.53;;;7.70;99.90;;;;;;5069797;28;20039;-79
2022/05/01 03:48:51;;;;;;;11.70;6.22;;;7.70;99.90;;;;;;5050882;28;20139;-78
2022/05/01 03:51:16;;;;;;;6.50;4.30;;;7.80;99.90;;;;;;5052424;28;20032;-78
2022/05/01 03:53:45;;;;;;;8.93;5.32;;;7.80;99.90;;;;;;5069197;28;20020;-79
2022/05/01 03:56:11;;;;;;;10.57;6.10;;;7.90;99.90;;;;;;5069516;28;20017;-79
2022/05/01 03:58:38;;;;;;;8.38;5.32;;;7.80;99.90;;;;;;5051768;28;20088;-79
2022/05/01 04:01:04;;;;;;;10.35;6.28;;;7.80;99.90;;;;;;5044401;28;20082;-79
2022/05/01 04:03:30;;;;;;;9.02;5.68;;;7.90;99.90;;;;;;5051114;28;20504;-79
2022/05/01 04:05:56;;;;;;;9.73;6.38;;;7.90;99.90;;;;;;5069760;28;20477;-79
2022/05/01 04:08:22;;;;;;;8.32;5.20;;;7.90;99.90;;;;;;5069230;28;20461;-79
2022/05/01 04:10:49;;;;;;;8.32;5.32;;;7.90;99.90;;;;;;5069303;28;20058;-79
2022/05/01 04:13:15;;;;;;;9.15;4.63;;;7.90;99.90;;;;;;5070557;28;20019;-79
2022/05/01 04:15:41;;;;;;;9.02;5.68;;;7.80;99.90;;;;;;5074040;28;20025;-79
2022/05/01 04:18:08;;;;;;;7.15;4.15;;;7.70;99.90;;;;;;5073554;28;20028;-79
2022/05/01 04:20:37;;;;;;;8.32;4.78;;;7.70;99.90;;;;;;5073387;28;20012;-79
2022/05/01 04:23:04;;;;;;;8.27;4.47;;;7.70;99.90;;;;;;5090767;22;20045;-79
2022/05/01 04:25:30;;;;;;;7.50;4.43;;;7.70;99.90;;;;;;5055636;28;20074;-79
2022/05/01 04:28:01;;;;;;;7.82;4.70;;;7.70;99.90;;;;;;5056356;28;20112;-79
2022/05/01 04:30:27;;;;;;;11.07;4.82;;;7.70;99.90;;;;;;5074520;28;20096;-80
2022/05/01 04:33:02;;;;;;;7.38;4.63;;;7.60;99.90;;;;;;5074187;28;20138;-80
2022/05/01 04:35:37;;;;;;;6.72;4.65;;;7.70;99.90;;;;;;5073885;28;20032;-80
2022/05/01 04:38:05;;;;;;;5.72;4.80;;;7.70;99.90;;;;;;5073752;28;20013;-79
2022/05/01 04:40:38;;;;;;;9.05;5.10;;;7.70;99.90;;;;;;5073737;28;20078;-80
2022/05/01 04:43:09;;;;;;;5.90;4.22;;;7.60;99.90;;;;;;5067552;28;20021;-80
2022/05/01 04:45:36;;;;;;;6.83;4.93;;;7.70;99.90;;;;;;5055794;28;20024;-79
2022/05/01 04:48:03;;;;;;;6.93;4.53;;;7.70;99.90;;;;;;5072911;28;20311;-80
2022/05/01 04:50:30;;;;;;;12.05;5.28;;;7.60;99.90;;;;;;5073777;28;20013;-81
2022/05/01 04:52:56;;;;;;;7.57;5.05;;;7.70;99.90;;;;;;5073434;28;20051;-81
2022/05/01 04:55:23;;;;;;;8.05;4.88;;;7.60;99.90;;;;;;5073372;28;20111;-81
2022/05/01 04:57:49;;;;;;;8.40;5.07;;;7.70;99.90;;;;;;5073563;28;20024;-81
2022/05/01 05:00:18;;;;;;;10.43;5.47;;;7.80;99.90;;;;;;5066923;28;20033;-81
2022/05/01 05:02:46;;;;;;;10.43;5.13;;;7.90;99.90;;;;;;5073426;28;20074;-81
2022/05/01 05:05:12;;;;;;;8.32;4.65;;;7.90;99.90;;;;;;5073143;28;20427;-81
2022/05/01 05:07:39;;;;;;;8.18;5.03;;;8.00;99.90;;;;;;5073544;28;20027;-81
2022/05/01 05:10:06;;;;;;;6.28;4.68;;;8.00;99.90;;;;;;5073495;28;20416;-80
2022/05/01 05:12:32;;;;;;;9.57;5.60;;;8.00;99.90;;;;;;5073921;28;20690;-80
2022/05/01 05:15:02;;;;;;;7.43;4.97;;;8.10;99.90;;;;;;5055118;28;20031;-80
2022/05/01 05:17:31;;;;;;;6.97;4.30;;;8.30;99.90;;;;;;5073045;28;20024;-80
2022/05/01 05:19:58;;;;;;;7.00;4.25;;;8.40;99.90;;;;;;5071526;28;20111;-80
2022/05/01 05:22:24;;;;;;;7.53;4.43;;;8.50;99.90;;;;;;5097509;22;20406;-78
2022/05/01 05:24:50;;;;;;;7.10;4.45;;;8.50;99.90;;;;;;5070535;28;20033;-80
2022/05/01 05:27:17;;;;;;;7.53;4.93;;;8.50;99.90;;;;;;5072732;28;20032;-78
2022/05/01 05:29:43;;;;;;;11.70;5.63;;;8.60;99.90;;;;;;5069651;28;20115;-78
2022/05/01 05:32:08;;;;;;;7.60;4.82;;;8.70;99.90;;;;;;5063242;28;20162;-79
2022/05/01 05:34:34;;;;;;;10.63;5.28;;;8.70;99.90;;;;;;5051499;28;20021;-79
2022/05/01 05:37:00;;;;;;;6.78;4.38;;;8.80;99.90;;;;;;5053012;28;20095;-78
2022/05/01 05:39:26;;;;;;;7.90;4.68;;;9.00;99.90;;;;;;5052629;28;20029;-80
2022/05/01 05:41:51;;;;;;;10.30;5.30;;;9.10;99.90;;;;;;5052400;28;20381;-80
2022/05/01 05:44:17;;;;;;;9.68;5.55;;;9.20;99.90;;;;;;5052394;28;20120;-80
2022/05/01 05:46:43;;;;;;;7.88;5.20;;;9.30;99.90;;;;;;5051462;28;20021;-79
2022/05/01 05:49:08;;;;;;;10.77;5.10;;;9.50;99.90;;;;;;5051183;28;20024;-79
2022/05/01 05:51:34;;;;;;;8.27;4.93;;;9.60;99.90;;;;;;5052667;28;20504;-79
2022/05/01 05:54:00;;;;;;;8.13;5.38;;;9.90;99.90;;;;;;5051218;28;20553;-79
2022/05/01 05:56:25;;;;;;;7.63;5.00;;;10.20;99.90;;;;;;5050818;28;20071;-79
2022/05/01 05:58:52;;;;;;;9.20;5.38;;;10.40;99.90;;;;;;5052189;28;20470;-79
2022/05/01 06:01:17;;;;;;;7.82;5.40;;;10.60;99.90;;;;;;5052748;28;20017;-79
2022/05/01 06:03:43;;;;;;;7.72;5.10;;;10.70;99.90;;;;;;5052131;28;20490;-79
2022/05/01 06:06:09;;;;;;;7.43;5.22;;;10.70;99.90;;;;;;5052504;28;20025;-79
2022/05/01 06:08:36;;;;;;;7.68;4.82;;;10.80;99.90;;;;;;5052515;28;20592;-79
2022/05/01 06:11:02;;;;;;;7.07;4.90;;;10.90;99.90;;;;;;5051951;28;20023;-79
2022/05/01 06:13:28;;;;;;;8.80;4.97;;;11.20;99.90;;;;;;5051873;28;20532;-79
2022/05/01 06:15:53;;;;;;;7.15;4.50;;;11.30;99.90;;;;;;5052079;28;20029;-79
2022/05/01 06:18:19;;;;;;;8.60;4.63;;;11.50;99.90;;;;;;5051904;28;20055;-79
2022/05/01 06:20:45;;;;;;;7.57;5.07;;;11.80;99.90;;;;;;5051283;28;20056;-79
2022/05/01 06:23:10;;;;;;;8.50;4.65;;;12.10;99.90;;;;;;5082580;22;20622;-80
2022/05/01 06:25:43;;;;;;;8.07;4.80;;;12.30;99.90;;;;;;5065646;28;20031;-80
2022/05/01 06:28:09;;;;;;;8.63;5.13;;;12.50;99.90;;;;;;5091080;28;20088;-80
2022/05/01 06:30:35;;;;;;;8.35;5.55;;;12.60;99.90;;;;;;5092015;28;20019;-80
2022/05/01 06:33:01;;;;;;;8.15;4.57;;;12.80;99.90;;;;;;5082541;28;20025;-81
2022/05/01 06:35:31;;;;;;;8.63;5.35;;;13.10;99.90;;;;;;5070602;28;20039;-80
2022/05/01 06:38:00;;;;;;;8.60;5.05;;;13.30;99.90;;;;;;5052636;28;20021;-80
2022/05/01 06:40:25;;;;;;;10.98;6.85;;;13.10;99.90;;;;;;5071060;28;20024;-80
2022/05/01 06:42:51;;;;;;;9.35;5.75;;;13.10;99.90;;;;;;5070237;28;20033;-80
2022/05/01 06:45:17;;;;;;;10.25;6.18;;;13.10;99.90;;;;;;5070464;28;20029;-80
2022/05/01 06:47:43;;;;;;;11.20;6.53;;;13.20;99.90;;;;;;5052684;28;20035;-80
2022/05/01 06:50:09;;;;;;;10.85;7.05;;;13.00;99.90;;;;;;5070759;28;20470;-81
2022/05/01 06:52:34;;;;;;;13.32;6.82;;;13.00;99.90;;;;;;5070346;28;20386;-81
2022/05/01 06:55:00;;;;;;;12.40;7.10;;;13.10;99.90;;;;;;5070812;28;20031;-81
2022/05/01 06:57:26;;;;;;;9.23;6.15;;;13.20;99.90;;;;;;5070295;28;20036;-80
2022/05/01 06:59:52;;;;;;;9.82;6.00;;;13.20;99.90;;;;;;5070187;28;20028;-81
2022/05/01 07:02:18;;;;;;;11.38;5.80;;;13.10;99.90;;;;;;5070699;28;20035;-80
2022/05/01 07:04:44;;;;;;;12.45;6.00;;;13.20;99.90;;;;;;5070179;28;20423;-81
2022/05/01 07:07:09;;;;;;;12.02;6.78;;;13.10;99.90;;;;;;5069712;28;20037;-80
2022/05/01 07:09:35;;;;;;;10.82;5.55;;;13.20;99.90;;;;;;5070450;28;20025;-81
2022/05/01 07:12:01;;;;;;;10.52;6.03;;;13.30;99.90;;;;;;5070163;28;20019;-81
2022/05/01 07:14:27;;;;;;;10.73;6.00;;;13.60;99.90;;;;;;5063438;28;20062;-81
2022/05/01 07:16:53;;;;;;;8.85;5.47;;;13.80;99.90;;;;;;5070392;28;20131;-81
2022/05/01 07:19:18;;;;;;;10.90;6.05;;;14.00;99.90;;;;;;5069955;28;20017;-81
2022/05/01 07:21:44;;;;;;;11.15;7.03;;;14.20;99.90;;;;;;5069993;28;20081;-81
2022/05/01 07:24:10;;;;;;;8.27;5.65;;;14.40;99.90;;;;;;5099140;22;20136;-80
2022/05/01 07:26:35;;;;;;;9.20;5.35;;;14.40;99.90;;;;;;5075628;28;20436;-79
2022/05/01 07:29:03;;;;;;;10.80;5.60;;;14.30;99.90;;;;;;5081692;28;20028;-80
2022/05/01 07:31:29;;;;;;;11.30;5.57;;;14.40;99.90;;;;;;5076935;28;20017;-80
2022/05/01 07:33:55;;;;;;;7.97;5.68;;;14.50;99.90;;;;;;5073432;28;20032;-80
2022/05/01 07:36:21;;;;;;;8.10;5.40;;;14.30;99.90;;;;;;5069998;28;20025;-79
2022/05/01 07:38:48;;;;;;;8.88;5.30;;;14.50;99.90;;;;;;5069889;28;20039;-80
2022/05/01 07:41:18;;;;;;;7.15;4.38;;;14.50;99.90;;;;;;5069805;28;20023;-78
2022/05/01 07:43:47;;;;;;;6.68;4.30;;;14.70;99.90;;;;;;5069431;28;20029;-79
2022/05/01 07:46:13;;;;;;;6.15;4.25;;;14.90;97.80;;;;;;5069792;28;20111;-79
2022/05/01 07:48:39;;;;;;;7.15;3.95;;;14.80;98.40;;;;;;5069310;28;20166;-79
2022/05/01 07:51:05;;;;;;;6.38;3.95;;;15.00;98.40;;;;;;5069637;28;20024;-78
2022/05/01 07:53:33;;;;;;;5.22;3.70;;;15.20;97.10;;;;;;5067736;28;20032;-79
2022/05/01 07:55:59;;;;;;;7.10;4.10;;;15.40;96.80;;;;;;5070307;28;20016;-79
2022/05/01 07:58:26;;;;;;;6.55;3.63;;;15.70;95.50;;;;;;5069498;28;20024;-78
2022/05/01 08:00:54;;;;;;;4.28;3.30;;;15.90;92.80;;;;;;5069597;28;20036;-79
2022/05/01 08:06:05;;;;;;;4.32;3.45;;;16.30;91.00;;;;;;5063713;28;20083;-78
2022/05/01 08:08:33;;;;;;;5.50;3.35;;;16.60;91.40;;;;;;5067616;28;20145;-79
2022/05/01 08:11:00;;;;;;;6.53;3.35;;;16.60;89.00;;;;;;5067302;28;20032;-78
2022/05/01 08:13:26;;;;;;;6.35;3.47;;;16.50;82.10;;;;;;5063228;28;20021;-79
2022/05/01 08:15:52;;;;;;;5.53;3.47;;;16.40;84.80;;;;;;5063991;28;20027;-78
2022/05/01 08:21:05;;;;;;;4.05;3.08;;;16.80;84.50;;;;;;5067634;28;20170;-78
2022/05/01 08:23:31;;;;;;;3.13;2.58;;;17.40;79.40;;;;;;5088255;23;20097;-84
2022/05/01 08:26:02;;;;;;;5.75;3.00;;;17.50;75.30;;;;;;5081878;28;20166;-83
2022/05/01 08:28:30;;;;;;;4.47;2.72;;;17.50;71.70;;;;;;5075808;28;20020;-82
2022/05/01 08:30:55;;;;;;;4.78;2.05;;;17.20;69.40;;;;;;5069850;28;20154;-82
2022/05/01 08:33:21;;;;;;;2.55;2.13;;;17.40;67.70;;;;;;5081447;28;20493;-82
2022/05/01 08:35:47;;;;;;;3.05;2.63;;;17.50;68.10;;;;;;5074795;28;20016;-83
2022/05/01 08:38:13;;;;;;;8.10;2.60;;;17.60;70.70;;;;;;5074811;28;20024;-84
2022/05/01 08:40:39;;;;;;;4.13;2.80;;;17.80;71.00;;;;;;5075977;28;20032;-85
2022/05/01 08:43:05;;;;;;;3.00;1.90;;;17.90;68.80;;;;;;5076064;28;20508;-83
2022/05/01 08:45:53;;;;;;;2.92;2.25;;;18.00;66.50;;;;;;5077358;28;20029;-83
2022/05/01 08:48:59;;;;;;;5.05;2.33;;;18.00;65.60;;;;;;5076302;28;20017;-82
2022/05/01 08:51:25;;;;;;;3.17;2.33;;;18.10;63.90;;;;;;5077178;28;20020;-83
2022/05/01 08:53:51;;;;;;;5.85;2.97;;;18.30;66.10;;;;;;5077432;28;20020;-83
2022/05/01 08:56:18;;;;;;;3.85;2.60;;;18.30;65.90;;;;;;5076534;28;20016;-82
2022/05/01 08:58:45;;;;;;;2.40;2.20;;;18.40;65.40;;;;;;5075830;28;20031;-82
2022/05/01 09:01:11;;;;;;;3.50;2.30;;;18.40;62.10;;;;;;5081966;28;20105;-82
2022/05/01 09:03:39;;;;;;;4.45;2.10;;;18.10;58.60;;;;;;5079266;28;20071;-83
2022/05/01 09:06:05;;;;;;;3.60;2.30;;;18.20;61.80;;;;;;5081185;28;20043;-82
2022/05/01 09:08:31;;;;;;;3.15;2.40;;;18.20;62.10;;;;;;5080837;28;20021;-82
2022/05/01 09:12:49;;;;;;;2.30;1.80;;;18.30;62.70;;;;;;5080654;28;20024;-83
2022/05/01 09:13:44;;;;;;;2.65;2.00;;;18.50;63.30;;;;;;5080500;28;20016;-83
2022/05/01 09:16:11;;;;;;;2.03;1.77;;;18.80;58.90;;;;;;5074132;28;20025;-84
2022/05/01 09:18:45;;;;;;;4.53;2.65;;;19.10;58.50;;;;;;5075944;28;20045;-84
2022/05/01 09:21:11;;;;;;;4.18;2.03;;;19.20;59.30;;;;;;5080528;28;20052;-83
2022/05/01 09:23:38;;;;;;;3.97;2.10;;;18.80;56.80;;;;;;5111497;23;20048;-78
2022/05/01 09:26:04;;;;;;;2.97;2.60;;;18.90;58.90;;;;;;5091175;28;20468;-78
2022/05/01 09:28:30;;;;;;;2.70;2.00;;;19.10;56.60;;;;;;5092787;28;20112;-79
2022/05/01 09:30:56;;;;;;;2.25;2.00;;;19.40;58.50;;;;;;5092273;28;20513;-79
2022/05/01 09:33:22;;;;;;;3.45;2.33;;;19.60;56.20;;;;;;5085328;28;20496;-79
2022/05/01 09:35:48;;;;;;;3.88;2.28;;;19.70;57.00;;;;;;5084230;28;20104;-79
2022/05/01 09:38:15;;;;;;;5.38;2.58;;;19.90;55.30;;;;;;5082755;28;20073;-79
2022/05/01 09:40:45;;;;;;;3.92;2.20;;;19.70;55.60;;;;;;5079987;28;20461;-79
2022/05/01 09:43:46;;;;;;;4.03;2.45;;;19.50;55.10;;;;;;5084560;28;20020;-79
2022/05/01 09:46:16;;;;;;;5.00;2.65;;;19.20;56.10;;;;;;5079871;28;20021;-79
2022/05/01 09:48:57;;;;;;;3.58;2.55;;;19.20;57.30;;;;;;5078556;28;20043;-79
2022/05/01 09:51:24;;;;;;;5.35;2.80;;;19.40;57.30;;;;;;5084808;28;20027;-79
2022/05/01 09:53:50;;;;;;;8.50;3.05;;;19.50;58.30;;;;;;5082234;28;20031;-79
2022/05/01 09:56:15;;;;;;;4.70;3.28;;;19.50;56.40;;;;;;5080109;28;20024;-79
2022/05/01 09:58:43;;;;;;;8.65;3.35;;;19.10;56.70;;;;;;5084101;28;20023;-79
2022/05/01 10:01:16;;;;;;;4.75;3.22;;;19.30;58.00;;;;;;5082028;28;20417;-78
2022/05/01 10:03:46;;;;;;;6.68;3.45;;;19.20;60.50;;;;;;5081274;28;20062;-79
2022/05/01 10:06:16;;;;;;;5.93;3.63;;;19.60;60.30;;;;;;5085108;28;20017;-79
2022/05/01 10:08:44;;;;;;;4.47;3.22;;;19.90;55.10;;;;;;5079334;28;20074;-79
2022/05/01 10:11:14;;;;;;;5.75;3.20;;;20.30;59.10;;;;;;5082101;28;20115;-79
2022/05/01 10:13:40;;;;;;;4.25;2.70;;;20.60;56.90;;;;;;5082443;28;20016;-79
2022/05/01 10:16:09;;;;;;;5.18;3.30;;;20.60;55.70;;;;;;5080109;28;20029;-79
2022/05/01 10:18:35;;;;;;;5.22;2.80;;;20.60;53.20;;;;;;5084009;28;20531;-79
2022/05/01 10:21:02;;;;;;;4.90;3.05;;;20.30;55.10;;;;;;5083090;28;20461;-80
2022/05/01 10:23:29;;;;;;;4.60;2.70;;;19.80;54.40;;;;;;5101771;22;20044;-82
2022/05/01 10:26:09;;;;;;;4.75;3.00;;;19.20;54.80;;;;;;5090077;28;20062;-83
2022/05/01 10:28:45;;;;;;;4.20;3.00;;;19.00;56.80;;;;;;5079973;28;20581;-83
2022/05/01 10:35:06;;;;;;;6.75;2.78;;;19.30;56.40;;;;;;5068491;28;20075;-82
2022/05/01 10:38:09;;;;;;;5.72;2.80;;;19.60;58.90;;;;;;5071736;28;20103;-83
2022/05/01 10:40:49;;;;;;;3.03;2.67;;;19.60;58.10;;;;;;5065375;28;20008;-83
2022/05/01 10:43:31;;;;;;;4.22;3.10;;;19.70;56.20;;;;;;5064642;28;20025;-83
2022/05/01 10:46:02;;;;;;;5.05;2.85;;;19.50;53.80;;;;;;5067506;28;20113;-82
2022/05/01 10:48:39;;;;;;;6.27;2.73;;;19.70;56.20;;;;;;5068860;28;20610;-82
2022/05/01 10:51:38;;;;;;;4.35;3.17;;;20.00;54.80;;;;;;5071327;28;20028;-82
2022/05/01 10:54:10;;;;;;;4.03;2.78;;;20.20;55.60;;;;;;5071170;28;20109;-83
2022/05/01 10:56:37;;;;;;;5.05;2.53;;;20.60;54.00;;;;;;5071305;28;20013;-82
2022/05/01 10:59:30;;;;;;;2.55;2.30;;;20.80;46.80;;;;;;5071249;28;20025;-82
2022/05/01 11:02:03;;;;;;;5.22;2.55;;;20.90;52.40;;;;;;5072753;28;20071;-82
2022/05/01 11:04:41;;;;;;;5.07;2.83;;;20.90;52.30;;;;;;5071192;28;20035;-84
2022/05/01 11:07:16;;;;;;;3.03;2.25;;;21.20;49.60;;;;;;5071341;28;20056;-82
2022/05/01 11:09:48;;;;;;;2.92;1.92;;;21.30;53.00;;;;;;5064533;28;20046;-82
2022/05/01 11:12:17;;;;;;;4.25;2.83;;;21.80;49.40;;;;;;5070873;28;20020;-82
2022/05/01 11:15:02;;;;;;;2.55;1.95;;;22.00;49.80;;;;;;5070937;28;20020;-83
2022/05/01 11:17:30;;;;;;;3.22;2.25;;;21.80;45.60;;;;;;5070835;28;20118;-82
2022/05/01 11:20:04;;;;;;;3.15;2.45;;;21.40;47.10;;;;;;5071903;28;20028;-83
2022/05/01 11:22:31;;;;;;;3.05;2.25;;;21.40;46.10;;;;;;5117857;23;20436;-75
2022/05/01 11:24:56;;;;;;;2.55;1.98;;;21.60;46.70;;;;;;5075738;28;20068;-80
2022/05/01 11:27:23;;;;;;;2.78;1.88;;;21.30;46.50;;;;;;5078443;28;20055;-79
2022/05/01 11:30:26;;;;;;;3.95;2.67;;;21.50;46.60;;;;;;5078097;28;20012;-79
2022/05/01 11:33:11;;;;;;;4.85;2.20;;;21.60;46.40;;;;;;5083142;28;20016;-79
2022/05/01 11:36:00;;;;;;;4.30;2.60;;;21.80;46.20;;;;;;5059260;28;20088;-80
2022/05/01 11:38:50;;;;;;;5.03;2.47;;;21.60;45.20;;;;;;5057774;28;20128;-79
2022/05/01 11:41:39;;;;;;;6.53;2.88;;;21.00;46.30;;;;;;5058246;28;20025;-79
2022/05/01 11:44:24;;;;;;;5.43;3.05;;;20.70;47.60;;;;;;5058264;28;20021;-79
2022/05/01 11:46:51;;;;;;;4.28;2.83;;;20.10;47.30;;;;;;5057918;28;20025;-79
2022/05/01 11:49:17;;;;;;;5.75;3.17;;;20.00;48.20;;;;;;5056536;28;20021;-79
2022/05/01 11:51:47;;;;;;;3.78;2.83;;;19.90;48.30;;;;;;5058146;28;20021;-79
2022/05/01 11:54:18;;;;;;;7.00;3.70;;;20.10;51.20;;;;;;5054692;28;20017;-79
2022/05/01 12:02:26;;;;;;;4.65;3.40;;;20.20;48.50;;;;;;5063363;28;20027;-79
2022/05/01 12:04:57;;;;;;;4.15;2.95;;;20.00;49.50;;;;;;5055577;28;20055;-79
2022/05/01 12:07:23;;;;;;;4.63;3.22;;;20.20;48.90;;;;;;5055404;28;20019;-80
2022/05/01 12:09:51;;;;;;;4.55;3.17;;;19.90;48.50;;;;;;5054869;28;20021;-79
2022/05/01 12:12:19;;;;;;;4.40;2.80;;;19.50;48.40;;;;;;5057872;28;20017;-79
2022/05/01 12:14:46;;;;;;;4.45;3.42;;;19.20;50.30;;;;;;5057822;28;20017;-79
2022/05/01 12:17:17;;;;;;;3.75;3.33;;;19.30;52.60;;;;;;5056295;28;20028;-78
2022/05/01 12:19:44;;;;;;;6.25;3.17;;;19.50;53.00;;;;;;5063092;28;20017;-80
2022/05/01 12:22:14;;;;;;;6.90;3.80;;;19.30;52.70;;;;;;5058047;28;20021;-79
2022/05/01 12:24:41;;;;;;;4.35;3.08;;;19.50;53.70;;;;;;5096666;22;20468;-82
2022/05/01 12:27:07;;;;;;;7.18;3.90;;;19.20;52.70;;;;;;5076059;28;20016;-82
2022/05/01 12:29:35;;;;;;;4.30;2.70;;;18.70;54.80;;;;;;5075468;28;20077;-81
2022/05/01 12:32:12;;;;;;;5.35;2.97;;;18.20;52.70;;;;;;5075071;28;20022;-82
2022/05/01 12:34:57;;;;;;;4.22;2.63;;;18.20;52.90;;;;;;5071870;28;20024;-80
2022/05/01 12:37:27;;;;;;;4.15;2.90;;;18.10;54.30;;;;;;5073544;28;20400;-80
2022/05/01 12:39:56;;;;;;;2.97;2.40;;;18.10;54.10;;;;;;5073215;28;20480;-83
2022/05/01 12:45:10;;;;;;;6.78;2.92;;;18.20;56.30;;;;;;5065441;28;20043;-82
2022/05/01 12:47:41;;;;;;;4.75;2.92;;;18.20;55.90;;;;;;5072055;28;20029;-81
2022/05/01 12:50:10;;;;;;;5.20;3.65;;;18.10;57.00;;;;;;5072477;28;21109;-81
2022/05/01 12:52:38;;;;;;;6.30;3.45;;;17.80;60.50;;;;;;5073483;28;20016;-82
2022/05/01 12:55:15;;;;;;;5.68;4.57;;;17.70;58.00;;;;;;5073063;28;20036;-82
2022/05/01 12:57:43;;;;;;;7.28;3.30;;;17.60;58.50;;;;;;5072717;28;20697;-81
2022/05/01 13:00:09;;;;;;;5.90;3.92;;;17.60;60.70;;;;;;5071687;28;20012;-82
2022/05/01 13:02:35;;;;;;;6.78;3.63;;;17.60;59.50;;;;;;5073543;28;20017;-81
2022/05/01 13:05:05;;;;;;;5.63;3.58;;;17.60;61.30;;;;;;5071073;28;20062;-82
2022/05/01 13:07:34;;;;;;;5.40;3.40;;;17.70;60.40;;;;;;5071270;28;20025;-81
2022/05/01 13:10:01;;;;;;;7.03;3.90;;;18.10;62.00;;;;;;5072164;28;20078;-81
2022/05/01 13:12:31;;;;;;;5.60;3.58;;;18.40;57.80;;;;;;5065430;28;20039;-81
2022/05/01 13:15:04;;;;;;;4.75;3.88;;;18.70;59.80;;;;;;5072575;28;20021;-81
2022/05/01 13:17:31;;;;;;;4.70;3.33;;;18.70;58.00;;;;;;5072071;28;20099;-81
2022/05/01 13:19:58;;;;;;;4.85;3.88;;;19.20;58.30;;;;;;5071737;28;20162;-82
2022/05/01 13:25:01;;;;;;;7.43;4.53;;;19.20;58.30;;;;;;5050947;28;20045;-79
2022/05/01 13:27:27;;;;;;;5.22;3.58;;;19.00;60.00;;;;;;5052434;28;20044;-79
2022/05/01 13:29:52;;;;;;;6.57;3.38;;;19.00;58.30;;;;;;5034596;28;20485;-79
2022/05/01 13:32:19;;;;;;;5.93;3.45;;;19.10;57.40;;;;;;5052470;28;20940;-79